Hauptseite
METAR-TAF:

METAR-TAF

Flughäfen :

Sapporo, Japan

Breite: 43-07N, Länge: 141-23E, Höhe: 8 m

Beobachtung

Neuester Wetterbericht von vor 2 Stunden und 41 Minuten, um 11:00 UTC
Wind 3 kt aus Nordost, variierte zwischen Nord und Ost/Nordost
Temperatur 11°C
Luftfeuchtigkeit 82%
Luftdruck 1015 hPa
Sichtweite 10 km oder mehr
Leicht bewölkt in der Höhe von 2000 ft

METAR: RJCO 251100Z 04003KT 360V070 9999 FEW020 11/08 Q1015

Zeit: 22:41 (13:41 UTC)


TAF: fehlend

Wetterbeobachtungen und Prognosen von mehr als 4000 Flughäfen (METAR und TAF Bericht).

Die verfügbaren Stationen werden durch gelbe und rote Markierungen auf der Karte dargestellt.

Führen Sie die Maus auf sie, um den Namen der Station zu sehen.

Darauf klicken, um die Beobachtung von Wetterbeobachtungen und Prognosen zu sehen.

Um die Karte zu ändern : klicken Sie auf den grünen Tasten mit einem schwarzen Kreuz Zum Vergrößern, auf den grünen Button mit einem Gedankenstrich zu verkleinern, oder auf die grünen Pfeile für benachbarte Karten.


METAR-TAF: